Dades meteomassalio
Diari Summary for Noviembre 24, 2017 Units:  English    Metric   Both
« Previous Day
Next Day »
Diari Semanal Mensual Anual Personalitzat
  Maxima: Minima: Mijana:
Temperatura: TemperatureC °F 3.3 °F 11 °F
Rosada: DewpointC °F -2.7 °F 2.3 °F
Humitat: Humidity % 35 % 57 %
Velocitat del vent: WindSpeedKMH mph 0.0 mph 2.5 mph
Racha vent: WindSpeedGustKMH mph - -
Vent:- - SW
Pressio: PressurehPa in 1020.2 in -
Pluja: 0.0 in    
Historical Graphs
 
 
Tabular Data for Noviembre 24, 2017
Time Temperature Dew Point Pressure Wind Wind Speed Wind Gust Humidity Rainfall Rate (Hourly) solar Conditions
TemperatureC °F DewpointC °F PressurehPa in Calm     Humidity % HourlyPrecipMM in SolarRadiationWatts/m^2 W/m2 Conditions
00:12 3.9 °F -1.5 °F 1023.2 in Calm     68 % 0.0 in 0.0 W/m2 CLR
00:17 3.9 °F -1.7 °F 1023.2 in Calm     67 % 0.0 in 0.0 W/m2 CLR
00:27 3.9 °F -1.7 °F 1023.2 in Calm     67 % 0.0 in 0.0 W/m2 CLR
00:37 3.3 °F -2.4 °F 1023.2 in Calm     66 % 0.0 in 0.0 W/m2 CLR
00:47 3.9 °F -1.9 °F 1023.2 in Calm     66 % 0.0 in 0.0 W/m2 CLR
01:02 5.0 °F -1.1 °F 1023.2 in SW 3.7 mph 3.7 mph 65 % 0.0 in 0.0 W/m2 CLR
01:12 5.0 °F -1.1 °F 1022.9 in NW 5.6 mph 5.6 mph 65 % 0.0 in 0.0 W/m2 CLR
01:17 5.0 °F -1.1 °F 1022.9 in Calm     65 % 0.0 in 0.0 W/m2 CLR
01:22 5.0 °F -1.1 °F 1023.2 in Calm     65 % 0.0 in 0.0 W/m2 CLR
01:27 5.0 °F -1.3 °F 1022.9 in Calm     64 % 0.0 in 0.0 W/m2 CLR
01:32 5.0 °F -1.3 °F 1022.9 in Calm     64 % 0.0 in 0.0 W/m2 CLR
01:37 5.0 °F -1.3 °F 1023.2 in Calm     64 % 0.0 in 0.0 W/m2 CLR
01:47 5.0 °F -1.3 °F 1022.9 in Calm     64 % 0.0 in 0.0 W/m2 CLR
01:52 5.0 °F -1.3 °F 1022.9 in Calm     64 % 0.0 in 0.0 W/m2 CLR
02:07 5.0 °F -1.7 °F 1022.6 in Calm     62 % 0.0 in 0.0 W/m2 CLR
02:12 5.0 °F -1.9 °F 1022.6 in Calm     61 % 0.0 in 0.0 W/m2 CLR
02:17 5.0 °F -1.7 °F 1022.6 in Calm     62 % 0.0 in 0.0 W/m2 CLR
02:22 5.0 °F -1.7 °F 1022.6 in Calm     62 % 0.0 in 0.0 W/m2 CLR
02:27 5.0 °F -1.7 °F 1022.6 in Calm     62 % 0.0 in 0.0 W/m2 CLR
02:47 5.0 °F -1.7 °F 1022.6 in Calm     62 % 0.0 in 0.0 W/m2 CLR
03:02 5.0 °F -2.1 °F 1022.6 in Calm     60 % 0.0 in 0.0 W/m2 CLR
03:07 5.0 °F -1.9 °F 1022.6 in Calm     61 % 0.0 in 0.0 W/m2 CLR
03:12 5.0 °F -1.7 °F 1022.6 in Calm     62 % 0.0 in 0.0 W/m2 CLR
03:17 5.0 °F -1.7 °F 1022.6 in Calm     62 % 0.0 in 0.0 W/m2 CLR
03:27 5.0 °F -1.7 °F 1022.6 in Calm     62 % 0.0 in 0.0 W/m2 CLR
03:52 5.6 °F -1.4 °F 1022.2 in Calm     61 % 0.0 in 0.0 W/m2 CLR
03:57 5.6 °F -1.4 °F 1022.2 in Calm     61 % 0.0 in 0.0 W/m2 CLR
04:02 5.6 °F -1.4 °F 1022.2 in Calm     61 % 0.0 in 0.0 W/m2 CLR
04:07 5.6 °F -1.4 °F 1022.2 in Calm     61 % 0.0 in 0.0 W/m2 CLR
04:13 5.6 °F -1.4 °F 1022.2 in Calm     61 % 0.0 in 0.0 W/m2 CLR
04:18 5.0 °F -1.9 °F 1022.2 in Calm     61 % 0.0 in 0.0 W/m2 CLR
04:19 5.0 °F -1.9 °F 1022.2 in Calm     61 % 0.0 in 0.0 W/m2 CLR
04:21 5.0 °F -1.7 °F 1022.2 in Calm     62 % 0.0 in 0.0 W/m2 CLR
04:26 5.0 °F -1.7 °F 1022.2 in Calm     62 % 0.0 in 0.0 W/m2 CLR
04:30 4.4 °F -2.2 °F 1022.2 in Calm     62 % 0.0 in 0.0 W/m2 CLR
04:35 4.4 °F -2.0 °F 1021.9 in Calm     63 % 0.0 in 0.0 W/m2 CLR
04:40 4.4 °F -2.0 °F 1022.2 in Calm     63 % 0.0 in 0.0 W/m2 CLR
04:45 4.4 °F -2.2 °F 1022.2 in Calm     62 % 0.0 in 0.0 W/m2 CLR
04:50 3.9 °F -2.5 °F 1021.9 in Calm     63 % 0.0 in 0.0 W/m2 CLR
04:55 3.9 °F -2.7 °F 1022.2 in Calm     62 % 0.0 in 0.0 W/m2 CLR
05:00 3.9 °F -2.5 °F 1021.9 in Calm     63 % 0.0 in 0.0 W/m2 CLR
05:05 3.9 °F -2.5 °F 1022.2 in Calm     63 % 0.0 in 0.0 W/m2 CLR
05:10 4.4 °F -2.0 °F 1022.6 in Calm     63 % 0.0 in 0.0 W/m2 CLR
05:15 5.0 °F -1.3 °F 1022.2 in Calm     64 % 0.0 in 0.0 W/m2 CLR
05:30 5.6 °F -0.7 °F 1021.9 in Calm     64 % 0.0 in 0.0 W/m2 CLR
05:35 5.6 °F -0.7 °F 1021.9 in East 5.6 mph   64 % 0.0 in 0.0 W/m2 CLR
05:40 5.6 °F -0.7 °F 1022.2 in Calm     64 % 0.0 in 0.0 W/m2 CLR
05:45 6.1 °F -0.2 °F 1021.9 in NNE 18.5 mph 18.5 mph 64 % 0.0 in 0.0 W/m2 CLR
05:51 6.1 °F 0.0 °F 1022.2 in WSW 11.1 mph 11.1 mph 65 % 0.0 in 0.0 W/m2 CLR
05:56 6.7 °F 0.1 °F 1022.2 in Calm   0.2 mph 63 % 0.0 in 0.0 W/m2 CLR
06:01 6.7 °F -0.1 °F 1022.2 in North 13.0 mph 13.0 mph 62 % 0.0 in 0.0 W/m2 CLR
06:06 6.7 °F -0.3 °F 1022.2 in Calm     61 % 0.0 in 0.0 W/m2 CLR
06:21 7.2 °F 0.7 °F 1021.9 in Calm     63 % 0.0 in 0.0 W/m2 CLR
06:26 6.7 °F 0.6 °F 1021.9 in Calm     65 % 0.0 in 0.0 W/m2 CLR
06:36 6.7 °F 0.3 °F 1021.9 in Calm     64 % 0.0 in 0.0 W/m2 CLR
06:41 6.7 °F 0.3 °F 1021.6 in Calm     64 % 0.0 in 0.0 W/m2 CLR
06:46 6.7 °F 0.6 °F 1021.6 in Calm     65 % 0.0 in 0.0 W/m2 CLR
06:51 6.7 °F 0.9 °F 1021.6 in Calm     67 % 0.0 in 0.0 W/m2 CLR
07:06 6.7 °F 1.4 °F 1021.6 in Calm     69 % 0.0 in 0.0 W/m2 CLR
07:11 6.7 °F 1.4 °F 1021.6 in Calm     69 % 0.0 in 0.0 W/m2 CLR
07:16 6.7 °F 1.2 °F 1021.6 in Calm     68 % 0.0 in 0.0 W/m2 CLR
07:21 6.7 °F 1.4 °F 1021.6 in Calm     69 % 0.0 in 0.0 W/m2 CLR
07:26 6.7 °F 1.8 °F 1021.6 in Calm     71 % 0.0 in 0.0 W/m2 CLR
07:31 6.7 °F 1.8 °F 1021.6 in Calm     71 % 0.0 in 0.0 W/m2 CLR
07:41 7.2 °F 2.1 °F 1021.9 in Calm     70 % 0.0 in 0.0 W/m2 CLR
07:46 7.2 °F 1.9 °F 1021.9 in Calm     69 % 0.0 in 0.0 W/m2 CLR
07:51 7.2 °F 2.3 °F 1021.9 in Calm     71 % 0.0 in 0.0 W/m2 OVC
08:11 7.2 °F 2.7 °F 1021.9 in Calm     73 % 0.0 in 7.0 W/m2 BKN
08:17 7.8 °F 3.2 °F 1021.9 in Calm     73 % 0.0 in 18.0 W/m2 BKN
08:22 7.8 °F 3.2 °F 1021.9 in Calm     73 % 0.0 in 26.0 W/m2 BKN
08:27 7.8 °F 3.2 °F 1022.2 in Calm     73 % 0.0 in 32.0 W/m2 BKN
08:32 7.8 °F 3.2 °F 1022.2 in Calm     73 % 0.0 in 32.0 W/m2 BKN
08:37 7.8 °F 3.2 °F 1022.2 in Calm     73 % 0.0 in 30.0 W/m2 BKN
08:42 7.8 °F 3.2 °F 1022.2 in Calm     73 % 0.0 in 25.0 W/m2 BKN
08:47 7.8 °F 3.2 °F 1022.6 in Calm     73 % 0.0 in 19.0 W/m2 BKN
08:52 8.3 °F 3.8 °F 1022.6 in Calm     73 % 0.0 in 21.0 W/m2 BKN
08:57 8.3 °F 3.6 °F 1022.6 in Calm     72 % 0.0 in 28.0 W/m2 BKN
09:02 8.3 °F 3.4 °F 1022.6 in Calm     71 % 0.0 in 44.0 W/m2 BKN
09:12 8.9 °F 3.9 °F 1022.9 in Calm     71 % 0.0 in 72.0 W/m2 SCT
09:17 8.9 °F 3.3 °F 1022.9 in Calm     68 % 0.0 in 74.0 W/m2 FEW
09:22 8.9 °F 3.9 °F 1022.9 in Calm     71 % 0.0 in 81.0 W/m2 FEW
09:37 9.4 °F 4.4 °F 1022.9 in Calm     71 % 0.0 in 121.0 W/m2 CLR
09:42 10.0 °F 5.0 °F 1022.9 in Calm     71 % 0.0 in 104.0 W/m2 CLR
09:47 10.0 °F 5.0 °F 1022.9 in Calm     71 % 0.0 in 100.0 W/m2 CLR
09:52 10.0 °F 4.8 °F 1022.9 in Calm     70 % 0.0 in 91.0 W/m2 CLR
09:57 10.0 °F 4.8 °F 1022.9 in Calm     70 % 0.0 in 77.0 W/m2 CLR
10:02 10.0 °F 5.0 °F 1022.9 in Calm     71 % 0.0 in 81.0 W/m2 CLR
10:07 10.0 °F 4.8 °F 1023.2 in Calm     70 % 0.0 in 69.0 W/m2 FEW
10:12 10.0 °F 4.8 °F 1023.2 in Calm     70 % 0.0 in 269.0 W/m2 CLR
10:17 10.0 °F 4.2 °F 1023.2 in Calm     67 % 0.0 in 134.0 W/m2 CLR
10:22 10.6 °F 4.0 °F 1023.2 in Calm     64 % 0.0 in 299.0 W/m2 CLR
10:27 10.6 °F 3.6 °F 1023.2 in Calm     62 % 0.0 in 308.0 W/m2 CLR
10:32 10.6 °F 3.1 °F 1022.9 in Calm     60 % 0.0 in 316.0 W/m2 CLR
10:37 11.7 °F 3.7 °F 1022.9 in Calm     58 % 0.0 in 325.0 W/m2 CLR
10:47 12.8 °F 3.4 °F 1023.2 in Calm     53 % 0.0 in 345.0 W/m2 CLR
10:52 13.3 °F 3.4 °F 1023.2 in Calm     51 % 0.0 in 352.0 W/m2 CLR
11:02 15.0 °F 4.4 °F 1022.9 in Calm     49 % 0.0 in 367.0 W/m2 CLR
11:07 15.0 °F 3.4 °F 1022.9 in Calm     46 % 0.0 in 374.0 W/m2 CLR
11:12 15.0 °F 2.8 °F 1022.9 in Calm     44 % 0.0 in 383.0 W/m2 CLR
11:17 15.6 °F 3.3 °F 1022.9 in Calm     44 % 0.0 in 390.0 W/m2 CLR
11:22 16.1 °F 3.5 °F 1022.9 in Calm     43 % 0.0 in 396.0 W/m2 CLR
11:27 17.2 °F 3.8 °F 1022.9 in Calm     41 % 0.0 in 401.0 W/m2 CLR
11:32 17.2 °F 3.5 °F 1022.6 in North 5.6 mph 5.6 mph 40 % 0.0 in 411.0 W/m2 CLR
11:37 17.8 °F 3.3 °F 1022.6 in NW 14.8 mph 14.8 mph 38 % 0.0 in 410.0 W/m2 CLR
11:42 18.3 °F 3.4 °F 1022.6 in NW 3.7 mph 3.7 mph 37 % 0.0 in 413.0 W/m2 CLR
11:47 18.9 °F 3.5 °F 1022.2 in NW 7.4 mph 7.4 mph 36 % 0.0 in 427.0 W/m2 CLR
11:52 19.4 °F 3.9 °F 1022.2 in NW 14.8 mph 14.8 mph 36 % 0.0 in 432.0 W/m2 CLR
11:57 20.0 °F 4.4 °F 1022.2 in NNW 18.5 mph 18.5 mph 36 % 0.0 in 441.0 W/m2 CLR
11:58 20.0 °F 4.4 °F 1021.9 in NNW 18.5 mph 18.5 mph 36 % 0.0 in 441.0 W/m2 CLR
12:03 20.0 °F 4.4 °F 1021.9 in North 5.6 mph 5.6 mph 36 % 0.0 in 446.0 W/m2 CLR
12:08 20.0 °F 4.4 °F 1021.6 in WSW 1.9 mph 1.9 mph 36 % 0.0 in 454.0 W/m2 CLR
12:13 20.0 °F 4.4 °F 1021.6 in WSW 5.6 mph 5.6 mph 36 % 0.0 in 454.0 W/m2 CLR
12:18 20.6 °F 4.6 °F 1021.6 in WSW 6.4 mph 6.4 mph 35 % 0.0 in 462.0 W/m2 CLR
12:23 20.6 °F 4.6 °F 1021.6 in NW 5.6 mph 5.6 mph 35 % 0.0 in 469.0 W/m2 CLR
12:28 20.6 °F 4.6 °F 1021.2 in North 9.3 mph 9.3 mph 35 % 0.0 in 462.0 W/m2 CLR
12:33 21.1 °F 5.1 °F 1021.2 in West 16.7 mph 16.7 mph 35 % 0.0 in 464.0 W/m2 CLR
12:38 21.1 °F 5.1 °F 1021.2 in West 22.2 mph 22.2 mph 35 % 0.0 in 452.0 W/m2 CLR
12:43 21.1 °F 5.1 °F 1020.9 in NW 20.4 mph 20.4 mph 35 % 0.0 in 418.0 W/m2 CLR
12:48 21.1 °F 5.4 °F 1020.9 in NW 19.3 mph 19.3 mph 36 % 0.0 in 250.0 W/m2 CLR
12:53 21.1 °F 5.8 °F 1021.2 in WNW 20.4 mph 20.4 mph 37 % 0.0 in 345.0 W/m2 CLR
12:58 21.1 °F 6.2 °F 1020.9 in WNW 18.5 mph 18.5 mph 38 % 0.0 in 239.0 W/m2 CLR
13:03 21.1 °F 6.2 °F 1020.9 in WNW 16.1 mph 16.1 mph 38 % 0.0 in 223.0 W/m2 CLR
13:08 21.1 °F 6.2 °F 1020.9 in NW 20.4 mph 20.4 mph 38 % 0.0 in 251.0 W/m2 CLR
13:13 21.1 °F 6.6 °F 1020.9 in NW 18.5 mph 18.5 mph 39 % 0.0 in 218.0 W/m2 CLR
13:18 21.1 °F 6.2 °F 1020.9 in NW 18.5 mph 18.5 mph 38 % 0.0 in 229.0 W/m2 CLR
13:23 21.1 °F 6.2 °F 1020.9 in Calm     38 % 0.0 in 338.0 W/m2 CLR
13:28 21.7 °F 6.7 °F 1020.9 in NW 9.7 mph 9.7 mph 38 % 0.0 in 315.0 W/m2 CLR
13:33 21.7 °F 7.1 °F 1020.9 in NW 12.9 mph 12.9 mph 39 % 0.0 in 276.0 W/m2 CLR
13:38 21.7 °F 7.1 °F 1020.9 in NNW 7.4 mph 7.4 mph 39 % 0.0 in 292.0 W/m2 CLR
13:43 21.7 °F 7.1 °F 1020.9 in NNW 11.1 mph 11.1 mph 39 % 0.0 in 283.0 W/m2 CLR
13:48 21.7 °F 7.5 °F 1020.9 in NW 18.5 mph 18.5 mph 40 % 0.0 in 248.0 W/m2 CLR
13:53 21.7 °F 7.5 °F 1020.9 in NW 19.3 mph 19.3 mph 40 % 0.0 in 272.0 W/m2 CLR
13:58 21.1 °F 7.0 °F 1020.9 in NW 16.7 mph 16.7 mph 40 % 0.0 in 260.0 W/m2 CLR
14:03 21.7 °F 7.1 °F 1020.5 in NW 3.7 mph 3.7 mph 39 % 0.0 in 283.0 W/m2 CLR
14:08 21.7 °F 7.1 °F 1020.5 in North 18.5 mph 18.5 mph 39 % 0.0 in 269.0 W/m2 CLR
14:13 21.7 °F 7.1 °F 1020.5 in NW 18.5 mph 18.5 mph 39 % 0.0 in 243.0 W/m2 CLR
14:18 21.1 °F 6.6 °F 1020.5 in NW 18.5 mph 18.5 mph 39 % 0.0 in 264.0 W/m2 CLR
14:24 21.1 °F 7.0 °F 1020.5 in Calm   0.8 mph 40 % 0.0 in 192.0 W/m2 CLR
14:29 21.1 °F 6.6 °F 1020.5 in North 18.5 mph 18.5 mph 39 % 0.0 in 204.0 W/m2 CLR
14:34 21.1 °F 6.6 °F 1020.5 in North 4.8 mph 4.8 mph 39 % 0.0 in 316.0 W/m2 CLR
14:39 21.1 °F 6.6 °F 1020.5 in NNE 16.7 mph 16.7 mph 39 % 0.0 in 220.0 W/m2 CLR
14:44 21.1 °F 6.6 °F 1020.5 in Calm     39 % 0.0 in 206.0 W/m2 CLR
14:49 21.1 °F 6.6 °F 1020.5 in North 5.6 mph 5.6 mph 39 % 0.0 in 160.0 W/m2 CLR
14:54 21.1 °F 6.6 °F 1020.5 in Calm     39 % 0.0 in 130.0 W/m2 CLR
14:59 20.6 °F 5.7 °F 1020.5 in NNE 9.7 mph 9.7 mph 38 % 0.0 in 148.0 W/m2 CLR
15:04 20.6 °F 5.3 °F 1020.5 in NE 16.7 mph 16.7 mph 37 % 0.0 in 163.0 W/m2 CLR
15:09 20.0 °F 5.2 °F 1020.5 in NNE 14.8 mph 14.8 mph 38 % 0.0 in 346.0 W/m2 CLR
15:14 20.6 °F 5.7 °F 1020.5 in NE 3.7 mph   38 % 0.0 in 399.0 W/m2 CLR
15:19 20.6 °F 5.7 °F 1020.5 in NE 3.7 mph 3.7 mph 38 % 0.0 in 236.0 W/m2 CLR
15:24 20.6 °F 6.1 °F 1020.5 in NE 5.6 mph 5.6 mph 39 % 0.0 in 276.0 W/m2 CLR
15:29 20.6 °F 6.1 °F 1020.5 in NE 5.6 mph   39 % 0.0 in 179.0 W/m2 CLR
15:34 20.0 °F 5.6 °F 1020.5 in NE 1.9 mph   39 % 0.0 in 118.0 W/m2 CLR
15:39 20.0 °F 5.6 °F 1020.5 in NE 3.7 mph 3.7 mph 39 % 0.0 in 120.0 W/m2 CLR
15:44 19.4 °F 5.5 °F 1020.5 in NNE 1.9 mph 1.9 mph 40 % 0.0 in 90.0 W/m2 CLR
15:49 19.4 °F 5.5 °F 1020.2 in NE 5.6 mph 5.6 mph 40 % 0.0 in 107.0 W/m2 CLR
15:54 18.9 °F 5.3 °F 1020.2 in Calm     41 % 0.0 in 79.0 W/m2 CLR
15:59 18.9 °F 5.3 °F 1020.2 in Calm     41 % 0.0 in 83.0 W/m2 FEW
16:04 18.9 °F 5.3 °F 1020.2 in Calm     41 % 0.0 in 88.0 W/m2 FEW
16:09 18.3 °F 5.2 °F 1020.5 in Calm     42 % 0.0 in 84.0 W/m2 FEW
16:14 18.3 °F 5.2 °F 1020.5 in Calm     42 % 0.0 in 81.0 W/m2 FEW
16:19 18.3 °F 5.2 °F 1020.5 in Calm     42 % 0.0 in 81.0 W/m2 FEW
16:24 17.8 °F 4.7 °F 1020.5 in Calm     42 % 0.0 in 76.0 W/m2 FEW
16:29 17.8 °F 5.0 °F 1020.5 in Calm     43 % 0.0 in 69.0 W/m2 FEW
16:34 17.8 °F 5.0 °F 1020.5 in Calm     43 % 0.0 in 65.0 W/m2 SCT
16:39 17.2 °F 4.8 °F 1020.5 in Calm     44 % 0.0 in 84.0 W/m2 FEW
16:44 17.2 °F 4.8 °F 1020.2 in Calm     44 % 0.0 in 56.0 W/m2 SCT
16:49 17.2 °F 4.8 °F 1020.5 in Calm     44 % 0.0 in 56.0 W/m2 SCT
16:54 16.7 °F 4.3 °F 1020.5 in Calm     44 % 0.0 in 47.0 W/m2 SCT
16:59 16.1 °F 4.2 °F 1020.5 in Calm     45 % 0.0 in 42.0 W/m2 BKN
17:04 16.1 °F 4.2 °F 1020.5 in Calm     45 % 0.0 in 39.0 W/m2 BKN
17:09 15.6 °F 3.9 °F 1020.5 in Calm     46 % 0.0 in 32.0 W/m2 BKN
17:14 15.6 °F 3.9 °F 1020.5 in Calm     46 % 0.0 in 19.0 W/m2 BKN
17:24 14.4 °F 3.3 °F 1020.5 in Calm     47 % 0.0 in 9.0 W/m2 BKN
17:29 13.9 °F 2.8 °F 1020.5 in Calm     47 % 0.0 in 5.0 W/m2 OVC
17:34 13.9 °F 3.1 °F 1020.5 in Calm     48 % 0.0 in 0.0 W/m2 OVC
17:39 13.3 °F 2.6 °F 1020.5 in Calm     48 % 0.0 in 0.0 W/m2 OVC
17:44 12.8 °F 2.3 °F 1020.5 in Calm     49 % 0.0 in 0.0 W/m2 CLR
17:49 12.8 °F 2.3 °F 1020.5 in Calm     49 % 0.0 in 0.0 W/m2 CLR
17:54 12.2 °F 2.1 °F 1020.5 in Calm     50 % 0.0 in 0.0 W/m2 CLR
17:59 12.2 °F 2.1 °F 1020.5 in Calm     50 % 0.0 in 0.0 W/m2 CLR
18:04 12.2 °F 2.1 °F 1020.5 in Calm     50 % 0.0 in 0.0 W/m2 CLR
18:09 12.2 °F 2.4 °F 1020.5 in Calm     51 % 0.0 in 0.0 W/m2 CLR
18:14 12.2 °F 2.4 °F 1020.5 in Calm     51 % 0.0 in 0.0 W/m2 CLR
18:19 11.7 °F 2.1 °F 1020.5 in Calm     52 % 0.0 in 0.0 W/m2 CLR
18:24 11.7 °F 2.4 °F 1020.9 in Calm     53 % 0.0 in 0.0 W/m2 CLR
18:29 11.1 °F 2.2 °F 1020.9 in Calm     54 % 0.0 in 0.0 W/m2 CLR
18:34 11.1 °F 2.4 °F 1020.9 in Calm     55 % 0.0 in 0.0 W/m2 CLR
18:39 11.1 °F 2.4 °F 1020.9 in Calm     55 % 0.0 in 0.0 W/m2 CLR
18:44 10.6 °F 1.9 °F 1020.5 in Calm     55 % 0.0 in 0.0 W/m2 CLR
18:49 10.6 °F 2.1 °F 1020.9 in Calm     56 % 0.0 in 0.0 W/m2 CLR
18:54 10.0 °F 1.9 °F 1020.9 in Calm     57 % 0.0 in 0.0 W/m2 CLR
18:59 9.4 °F 1.6 °F 1020.9 in Calm     58 % 0.0 in 0.0 W/m2 CLR
19:04 9.4 °F 1.6 °F 1020.9 in Calm     58 % 0.0 in 0.0 W/m2 CLR
19:09 9.4 °F 1.6 °F 1020.9 in Calm     58 % 0.0 in 0.0 W/m2 CLR
19:14 9.4 °F 2.1 °F 1020.9 in Calm     60 % 0.0 in 0.0 W/m2 CLR
19:19 9.4 °F 2.1 °F 1020.9 in Calm     60 % 0.0 in 0.0 W/m2 CLR
19:24 8.9 °F 1.8 °F 1020.9 in Calm     61 % 0.0 in 0.0 W/m2 CLR
19:29 8.9 °F 1.8 °F 1020.9 in Calm     61 % 0.0 in 0.0 W/m2 CLR
19:34 8.9 °F 2.0 °F 1020.9 in Calm     62 % 0.0 in 0.0 W/m2 CLR
19:39 8.9 °F 2.0 °F 1020.9 in Calm     62 % 0.0 in 0.0 W/m2 CLR
19:44 10.0 °F 2.8 °F 1020.9 in Calm     61 % 0.0 in 0.0 W/m2 CLR
19:49 10.0 °F 3.1 °F 1020.9 in Calm     62 % 0.0 in 0.0 W/m2 CLR
19:54 9.4 °F 2.7 °F 1020.9 in Calm     63 % 0.0 in 0.0 W/m2 CLR
19:59 9.4 °F 2.7 °F 1020.9 in Calm     63 % 0.0 in 0.0 W/m2 CLR
20:04 8.9 °F 2.2 °F 1020.9 in Calm     63 % 0.0 in 0.0 W/m2 CLR
20:09 8.9 °F 2.4 °F 1021.2 in Calm     64 % 0.0 in 0.0 W/m2 CLR
20:14 8.9 °F 2.4 °F 1020.9 in Calm     64 % 0.0 in 0.0 W/m2 CLR
20:19 8.9 °F 2.7 °F 1021.2 in Calm     65 % 0.0 in 0.0 W/m2 CLR
20:24 8.3 °F 1.9 °F 1021.2 in Calm     64 % 0.0 in 0.0 W/m2 CLR
20:29 8.3 °F 2.1 °F 1021.2 in Calm     65 % 0.0 in 0.0 W/m2 CLR
20:34 8.3 °F 2.1 °F 1021.2 in Calm     65 % 0.0 in 0.0 W/m2 CLR
20:39 8.3 °F 2.1 °F 1021.2 in Calm     65 % 0.0 in 0.0 W/m2 CLR
20:44 8.3 °F 2.1 °F 1021.2 in Calm     65 % 0.0 in 0.0 W/m2 CLR
20:49 7.8 °F 1.8 °F 1021.2 in Calm     66 % 0.0 in 0.0 W/m2 CLR
20:54 7.8 °F 1.6 °F 1021.6 in Calm     65 % 0.0 in 0.0 W/m2 CLR
20:59 7.8 °F 1.8 °F 1021.6 in Calm     66 % 0.0 in 0.0 W/m2 CLR
21:05 7.2 °F 1.3 °F 1021.6 in Calm     66 % 0.0 in 0.0 W/m2 CLR
21:10 7.2 °F 1.3 °F 1021.6 in Calm     66 % 0.0 in 0.0 W/m2 CLR
21:15 7.2 °F 1.3 °F 1021.6 in Calm     66 % 0.0 in 0.0 W/m2 CLR
21:20 7.2 °F 1.5 °F 1021.6 in Calm     67 % 0.0 in 0.0 W/m2 CLR
21:25 6.7 °F 0.6 °F 1021.6 in Calm     65 % 0.0 in 0.0 W/m2 CLR
21:30 6.7 °F 0.8 °F 1021.6 in Calm     66 % 0.0 in 0.0 W/m2 CLR
21:35 6.7 °F 0.9 °F 1021.6 in Calm     67 % 0.0 in 0.0 W/m2 CLR
21:40 6.7 °F 0.9 °F 1021.6 in Calm     67 % 0.0 in 0.0 W/m2 CLR
21:45 6.1 °F 0.2 °F 1021.6 in Calm     66 % 0.0 in 0.0 W/m2 CLR
21:50 6.1 °F 0.7 °F 1021.6 in Calm     68 % 0.0 in 0.0 W/m2 CLR
21:55 6.1 °F 0.8 °F 1021.6 in Calm     69 % 0.0 in 0.0 W/m2 CLR
22:00 6.1 °F 0.7 °F 1021.6 in Calm     68 % 0.0 in 0.0 W/m2 CLR
22:05 5.6 °F 0.1 °F 1021.2 in Calm     68 % 0.0 in 0.0 W/m2 CLR
22:10 5.6 °F -0.1 °F 1021.2 in Calm     67 % 0.0 in 0.0 W/m2 CLR
22:15 5.6 °F 0.1 °F 1021.2 in Calm     68 % 0.0 in 0.0 W/m2 CLR
22:20 5.6 °F 0.3 °F 1021.2 in Calm     69 % 0.0 in 0.0 W/m2 CLR
22:25 5.6 °F 0.5 °F 1021.6 in Calm     70 % 0.0 in 0.0 W/m2 CLR
22:30 5.0 °F 0.2 °F 1021.2 in Calm     71 % 0.0 in 0.0 W/m2 CLR
22:35 5.6 °F 0.7 °F 1021.2 in Calm     71 % 0.0 in 0.0 W/m2 CLR
22:40 5.6 °F 0.7 °F 1021.2 in Calm     71 % 0.0 in 0.0 W/m2 CLR
22:41 5.0 °F 0.2 °F 1021.2 in Calm     71 % 0.0 in 0.0 W/m2 CLR
22:46 5.0 °F 0.2 °F 1020.9 in Calm     71 % 0.0 in 0.0 W/m2 CLR
22:51 5.0 °F 0.2 °F 1020.9 in Calm     71 % 0.0 in 0.0 W/m2 CLR
22:52 5.0 °F 0.2 °F 1020.9 in Calm     71 % 0.0 in 0.0 W/m2 CLR
22:57 5.0 °F 0.6 °F 1021.2 in Calm     73 % 0.0 in 0.0 W/m2 CLR
23:02 5.0 °F 0.6 °F 1021.2 in Calm     73 % 0.0 in 0.0 W/m2 CLR
23:07 5.0 °F 0.6 °F 1020.9 in Calm     73 % 0.0 in 0.0 W/m2 CLR
23:12 5.0 °F 0.7 °F 1021.2 in Calm     74 % 0.0 in 0.0 W/m2 CLR
23:17 5.0 °F 0.9 °F 1021.2 in Calm     75 % 0.0 in 0.0 W/m2 CLR
23:22 5.6 °F 1.4 °F 1021.2 in Calm     75 % 0.0 in 0.0 W/m2 CLR
23:27 5.6 °F 1.3 °F 1020.9 in Calm     74 % 0.0 in 0.0 W/m2 CLR
23:32 5.6 °F 1.3 °F 1020.9 in Calm     74 % 0.0 in 0.0 W/m2 CLR
23:37 5.6 °F 1.3 °F 1020.9 in Calm     74 % 0.0 in 0.0 W/m2 CLR
23:42 5.6 °F 1.3 °F 1021.2 in Calm     74 % 0.0 in 0.0 W/m2 CLR
23:47 5.0 °F 0.7 °F 1020.9 in Calm     74 % 0.0 in 0.0 W/m2 CLR
23:52 5.0 °F 0.7 °F 1020.9 in Calm     74 % 0.0 in 0.0 W/m2 CLR
23:57 5.0 °F 0.9 °F 1021.2 in Calm     75 % 0.0 in 0.0 W/m2 CLR
Lo Temps de Massalio
Compliments of Weather Underground - 1 mb